createdAt,value
2023-02-18T00:01:32.751Z,99054.09
2023-02-18T00:04:00.382Z,99057.56
2023-02-18T00:06:29.191Z,99055.75
2023-02-18T00:08:59.026Z,99043.56
2023-02-18T00:11:26.419Z,99045.53
2023-02-18T00:13:58.834Z,99043.06
2023-02-18T00:16:26.517Z,99041.41
2023-02-18T00:19:01.580Z,99035.31
2023-02-18T00:21:29.107Z,99032.84
2023-02-18T00:23:56.012Z,99025.13
2023-02-18T00:26:23.087Z,99034.81
2023-02-18T00:28:51.610Z,99030.69
2023-02-18T00:31:24.723Z,99028.22
2023-02-18T00:33:52.361Z,99025.91
2023-02-18T00:36:21.089Z,99018.97
2023-02-18T00:38:49.123Z,99021.09
2023-02-18T00:41:18.292Z,99017.13
2023-02-18T00:43:46.614Z,99009.38
2023-02-18T00:46:13.560Z,99014.94
2023-02-18T00:48:40.550Z,99015.09
2023-02-18T00:51:09.644Z,99006.38
2023-02-18T00:53:36.734Z,99003.06
2023-02-18T00:56:03.857Z,99001.56
2023-02-18T00:58:31.334Z,98994.81
2023-02-18T01:01:01.179Z,98983.47
2023-02-18T01:03:28.163Z,98975.88
2023-02-18T01:05:55.128Z,98970.13
2023-02-18T01:08:22.472Z,98959.59
2023-02-18T01:10:53.055Z,98972.91
2023-02-18T01:13:19.969Z,98960.72
2023-02-18T01:15:47.740Z,98964.50
2023-02-18T01:18:14.920Z,98947.91
2023-02-18T01:20:42.635Z,98949.69
2023-02-18T01:23:09.844Z,98933.91
2023-02-18T01:25:38.097Z,98940.00
2023-02-18T01:28:09.406Z,98916.50
2023-02-18T01:30:36.648Z,98924.38
2023-02-18T01:33:04.881Z,98916.63
2023-02-18T01:35:32.040Z,98907.06
2023-02-18T01:37:59.091Z,98908.22
2023-02-18T01:40:30.169Z,98908.22
2023-02-18T01:42:57.619Z,98895.22
2023-02-18T01:45:33.955Z,98897.19
2023-02-18T01:48:00.949Z,98886.97
2023-02-18T01:50:27.958Z,98888.78
2023-02-18T01:52:54.843Z,98884.66
2023-02-18T01:55:21.844Z,98869.03
2023-02-18T01:57:48.919Z,98869.56
2023-02-18T02:00:17.999Z,98872.38
2023-02-18T02:02:47.176Z,98850.75
2023-02-18T02:05:14.894Z,98870.16
2023-02-18T02:07:42.931Z,98866.91
2023-02-18T02:10:11.339Z,98856.41
2023-02-18T02:12:56.889Z,98854.81
2023-02-18T02:15:31.995Z,98861.41
2023-02-18T02:17:58.802Z,98855.66
2023-02-18T02:20:38.124Z,98856.97
2023-02-18T02:23:23.756Z,98851.41
2023-02-18T02:26:09.689Z,98849.75
2023-02-18T02:31:48.963Z,98857.31
2023-02-18T02:34:22.061Z,98841.69
2023-02-18T02:36:52.619Z,98846.13
2023-02-18T02:39:37.881Z,98835.44
2023-02-18T02:42:16.029Z,98839.88
2023-02-18T02:44:52.741Z,98828.19
2023-02-18T02:47:26.010Z,98824.75
2023-02-18T02:49:56.035Z,98826.22
2023-02-18T02:52:28.286Z,98818.00
2023-02-18T02:54:55.333Z,98806.50
2023-02-18T02:57:22.453Z,98811.91
2023-02-18T03:00:07.490Z,98802.38
2023-02-18T03:02:53.197Z,98809.63
2023-02-18T03:05:20.230Z,98803.69
2023-02-18T03:07:50.289Z,98799.72
2023-02-18T03:10:23.766Z,98795.78
2023-02-18T03:13:01.746Z,98794.13
2023-02-18T03:15:28.768Z,98787.06
2023-02-18T03:18:01.917Z,98782.47
2023-02-18T03:20:34.459Z,98777.53
2023-02-18T03:23:04.406Z,98777.97
2023-02-18T03:25:32.158Z,98764.00
2023-02-18T03:28:06.208Z,98765.47
2023-02-18T03:30:35.495Z,98761.56
2023-02-18T03:33:04.742Z,98757.28
2023-02-18T03:35:32.036Z,98750.38
2023-02-18T03:38:12.498Z,98744.31
2023-02-18T03:40:39.608Z,98754.81
2023-02-18T03:43:06.657Z,98738.06
2023-02-18T03:45:33.813Z,98738.88
2023-02-18T03:48:00.809Z,98725.56
2023-02-18T03:50:27.802Z,98722.94
2023-02-18T03:52:54.780Z,98725.72
2023-02-18T03:55:21.595Z,98718.94
2023-02-18T03:57:48.515Z,98723.38
2023-02-18T04:00:15.616Z,98715.34
2023-02-18T04:02:42.771Z,98715.50
2023-02-18T04:05:12.663Z,98707.09
2023-02-18T04:07:39.744Z,98700.03
2023-02-18T04:10:07.066Z,98693.13
2023-02-18T04:12:34.217Z,98703.81
2023-02-18T04:15:01.317Z,98700.53
2023-02-18T04:17:29.505Z,98684.72
2023-02-18T04:19:56.381Z,98687.53
2023-02-18T04:22:23.322Z,98682.28
2023-02-18T04:24:53.365Z,98679.47
2023-02-18T04:27:20.418Z,98680.28
2023-02-18T04:29:47.631Z,98669.44
2023-02-18T04:32:14.522Z,98662.38
2023-02-18T04:34:41.523Z,98672.91
2023-02-18T04:37:08.529Z,98679.63
2023-02-18T04:39:35.524Z,98663.56
2023-02-18T04:42:02.958Z,98672.44
2023-02-18T04:44:30.008Z,98675.72
2023-02-18T04:46:57.087Z,98671.13
2023-02-18T04:49:24.028Z,98680.50
2023-02-18T04:51:53.973Z,98669.63
2023-02-18T04:54:20.961Z,98657.78
2023-02-18T04:56:48.031Z,98660.25
2023-02-18T04:59:15.080Z,98657.47
2023-02-18T05:01:42.092Z,98656.31
2023-02-18T05:04:09.320Z,98651.53
2023-02-18T05:06:36.227Z,98650.22
2023-02-18T05:09:03.185Z,98640.38
2023-02-18T05:11:57.798Z,98634.75
2023-02-18T05:14:25.087Z,98632.31
2023-02-18T05:16:52.084Z,98632.31
2023-02-18T05:19:20.858Z,98619.31
2023-02-18T05:21:50.708Z,98614.03
2023-02-18T05:24:20.789Z,98611.25
2023-02-18T05:26:47.774Z,98613.19
2023-02-18T05:29:14.755Z,98607.28
2023-02-18T05:31:44.359Z,98606.63
2023-02-18T05:34:11.730Z,98595.44
2023-02-18T05:36:38.908Z,98595.91
2023-02-18T05:39:06.188Z,98603.19
2023-02-18T05:41:33.509Z,98591.81
2023-02-18T05:44:19.505Z,98586.19
2023-02-18T05:46:46.524Z,98570.50
2023-02-18T05:49:13.606Z,98568.72
2023-02-18T05:51:40.749Z,98568.72
2023-02-18T05:54:10.254Z,98575.47
2023-02-18T05:56:38.466Z,98569.53
2023-02-18T05:59:07.764Z,98560.28
2023-02-18T06:01:34.927Z,98560.59
2023-02-18T06:04:02.317Z,98553.97
2023-02-18T06:06:29.449Z,98557.91
2023-02-18T06:08:56.761Z,98559.56
2023-02-18T06:11:27.488Z,98538.31
2023-02-18T06:14:02.629Z,98532.72
2023-02-18T06:16:32.630Z,98532.53
2023-02-18T06:18:59.870Z,98525.28
2023-02-18T06:21:31.128Z,98528.75
2023-02-18T06:23:58.295Z,98525.94
2023-02-18T06:26:25.482Z,98531.84
2023-02-18T06:28:53.097Z,98519.66
2023-02-18T06:31:20.261Z,98528.91
2023-02-18T06:33:49.156Z,98513.09
2023-02-18T06:36:16.416Z,98509.31
2023-02-18T06:38:46.609Z,98517.69
2023-02-18T06:41:14.206Z,98504.31
2023-02-18T06:43:41.354Z,98509.59
2023-02-18T06:46:08.908Z,98504.78
2023-02-18T06:48:36.522Z,98494.38
2023-02-18T06:51:04.840Z,98486.59
2023-02-18T06:53:36.367Z,98483.91
2023-02-18T06:56:03.742Z,98478.56
2023-02-18T06:58:31.441Z,98475.88
2023-02-18T07:00:58.905Z,98480.75
2023-02-18T07:03:26.268Z,98465.47
2023-02-18T07:05:54.029Z,98457.47
2023-02-18T07:08:22.063Z,98464.53
2023-02-18T07:11:14.544Z,98457.72
2023-02-18T07:13:45.863Z,98445.50
2023-02-18T07:16:13.245Z,98449.59
2023-02-18T07:18:40.442Z,98443.78
2023-02-18T07:21:07.695Z,98444.84
2023-02-18T07:23:35.045Z,98438.69
2023-02-18T07:26:06.883Z,98433.50
2023-02-18T07:28:34.435Z,98435.41
2023-02-18T07:31:01.666Z,98421.47
2023-02-18T07:33:33.247Z,98414.09
2023-02-18T07:36:01.307Z,98418.06
2023-02-18T07:38:29.007Z,98414.50
2023-02-18T07:40:56.711Z,98414.31
2023-02-18T07:43:25.252Z,98398.28
2023-02-18T07:45:58.760Z,98399.72
2023-02-18T07:48:29.661Z,98400.84
2023-02-18T07:54:57.345Z,98387.75
2023-02-18T07:57:39.892Z,98381.97
2023-02-18T08:00:16.271Z,98374.81
2023-02-18T08:05:55.136Z,98357.16
2023-02-18T08:08:36.982Z,98368.25
2023-02-18T08:15:54.256Z,98354.91
2023-02-18T08:21:04.646Z,98349.06
2023-02-18T08:30:36.913Z,98345.59
2023-02-18T08:33:30.373Z,98338.31
2023-02-18T08:36:03.046Z,98333.28
2023-02-18T08:38:31.119Z,98330.06
2023-02-18T08:41:09.510Z,98324.06
2023-02-18T08:44:01.051Z,98316.22
2023-02-18T08:46:36.527Z,98306.69
2023-02-18T08:49:32.349Z,98298.97
2023-02-18T08:52:05.403Z,98306.47
2023-02-18T08:54:33.804Z,98293.00
2023-02-18T08:57:02.875Z,98292.19
2023-02-18T08:59:29.989Z,98291.56
2023-02-18T09:01:57.292Z,98291.13
2023-02-18T09:04:29.658Z,98286.63
2023-02-18T09:06:56.691Z,98278.13
2023-02-18T09:09:34.441Z,98274.44
2023-02-18T09:12:03.393Z,98281.38
2023-02-18T09:14:31.172Z,98274.47
2023-02-18T09:16:58.887Z,98265.53
2023-02-18T09:19:34.682Z,98251.84
2023-02-18T09:22:02.022Z,98245.75
2023-02-18T09:24:29.490Z,98240.63
2023-02-18T09:26:56.659Z,98235.31
2023-02-18T09:29:23.860Z,98236.28
2023-02-18T09:31:51.284Z,98230.06
2023-02-18T09:34:18.505Z,98216.47
2023-02-18T09:36:45.537Z,98220.66
2023-02-18T09:39:13.940Z,98206.50
2023-02-18T09:41:43.376Z,98212.03
2023-02-18T09:44:17.197Z,98194.22
2023-02-18T09:46:52.014Z,98185.16
2023-02-18T09:49:21.914Z,98181.91
2023-02-18T09:51:52.398Z,98176.59
2023-02-18T09:54:28.061Z,98170.47
2023-02-18T09:56:59.565Z,98163.53
2023-02-18T09:59:30.976Z,98160.56
2023-02-18T10:02:11.022Z,98161.81
2023-02-18T10:04:54.611Z,98152.84
2023-02-18T10:07:28.632Z,98145.75
2023-02-18T10:09:56.949Z,98144.81
2023-02-18T10:12:25.602Z,98148.38
2023-02-18T10:14:57.186Z,98127.19
2023-02-18T10:17:28.139Z,98130.50
2023-02-18T10:19:59.363Z,98129.34
2023-02-18T10:22:27.365Z,98125.06
2023-02-18T10:25:00.015Z,98122.44
2023-02-18T10:27:34.617Z,98116.13
2023-02-18T10:30:21.422Z,98122.47
2023-02-18T10:32:55.319Z,98118.38
2023-02-18T10:35:38.480Z,98098.16
2023-02-18T10:38:32.282Z,98088.31
2023-02-18T10:41:20.215Z,98095.41
2023-02-18T10:43:53.740Z,98088.19
2023-02-18T10:46:31.983Z,98084.25
2023-02-18T10:49:08.456Z,98087.66
2023-02-18T10:51:37.772Z,98092.50
2023-02-18T10:54:05.119Z,98082.22
2023-02-18T10:56:58.325Z,98078.06
2023-02-18T10:59:32.629Z,98078.53
2023-02-18T11:02:25.534Z,98074.75
2023-02-18T11:04:52.784Z,98075.59
2023-02-18T11:07:27.693Z,98069.03
2023-02-18T11:09:56.357Z,98070.28
2023-02-18T11:12:28.417Z,98072.31
2023-02-18T11:15:11.929Z,98057.53
2023-02-18T11:17:38.990Z,98042.50
2023-02-18T11:20:17.934Z,98050.06
2023-02-18T11:22:44.847Z,98035.25
2023-02-18T11:25:25.283Z,98031.63
2023-02-18T11:28:08.428Z,98032.06
2023-02-18T11:30:46.417Z,98018.00
2023-02-18T11:33:20.978Z,98031.34
2023-02-18T11:35:54.317Z,98016.22
2023-02-18T11:38:30.080Z,98024.41
2023-02-18T11:41:00.393Z,98020.44
2023-02-18T11:43:29.909Z,98017.97
2023-02-18T11:46:10.394Z,98013.47
2023-02-18T11:48:37.832Z,98010.59
2023-02-18T11:51:07.200Z,97997.47
2023-02-18T11:53:36.358Z,97978.13
2023-02-18T11:56:05.150Z,98002.75
2023-02-18T11:58:39.685Z,97969.28
2023-02-18T12:01:20.361Z,97978.22
2023-02-18T12:03:52.600Z,97977.78
2023-02-18T12:06:32.387Z,97978.59
2023-02-18T12:09:07.481Z,97956.00
2023-02-18T12:11:43.237Z,97962.44
2023-02-18T12:14:18.085Z,97968.28
2023-02-18T12:16:45.319Z,97950.75
2023-02-18T12:19:31.195Z,97961.00
2023-02-18T12:22:04.609Z,97957.16
2023-02-18T12:24:50.829Z,97954.13
2023-02-18T12:27:34.354Z,97960.34
2023-02-18T12:30:20.076Z,97954.47
2023-02-18T12:33:07.359Z,97945.53
2023-02-18T12:35:34.818Z,97947.81
2023-02-18T12:38:20.510Z,97959.47
2023-02-18T12:40:59.985Z,97957.47
2023-02-18T12:43:47.985Z,97935.63
2023-02-18T12:46:36.176Z,97948.63
2023-02-18T12:49:03.248Z,97939.53
2023-02-18T12:51:40.476Z,97934.44
2023-02-18T12:54:26.582Z,97938.34
2023-02-18T12:57:08.496Z,97923.69
2023-02-18T12:59:44.990Z,97927.63
2023-02-18T13:02:27.133Z,97924.59
2023-02-18T13:04:55.774Z,97916.47
2023-02-18T13:08:02.866Z,97926.13
2023-02-18T13:10:42.947Z,97918.00
2023-02-18T13:13:22.301Z,97919.09
2023-02-18T13:15:55.552Z,97920.09
2023-02-18T13:18:42.848Z,97917.25
2023-02-18T13:21:14.731Z,97894.81
2023-02-18T13:23:51.195Z,97915.88
2023-02-18T13:26:19.319Z,97912.13
2023-02-18T13:28:58.855Z,97903.56
2023-02-18T13:31:38.171Z,97896.69
2023-02-18T13:34:08.478Z,97897.53
2023-02-18T13:36:44.511Z,97906.75
2023-02-18T13:42:17.290Z,97890.47
2023-02-18T13:44:59.061Z,97880.50
2023-02-18T13:47:36.469Z,97887.03
2023-02-18T13:50:22.185Z,97876.44
2023-02-18T13:52:49.976Z,97876.44
2023-02-18T13:55:26.734Z,97873.00
2023-02-18T13:57:54.858Z,97871.41
2023-02-18T14:00:24.511Z,97871.59
2023-02-18T14:03:02.483Z,97867.34
2023-02-18T14:05:40.924Z,97858.53
2023-02-18T14:08:15.852Z,97852.03
2023-02-18T14:10:43.194Z,97849.22
2023-02-18T14:13:40.489Z,97848.41
2023-02-18T14:16:08.317Z,97849.47
2023-02-18T14:18:41.865Z,97847.03
2023-02-18T14:21:13.169Z,97849.06
2023-02-18T14:23:42.692Z,97832.38
2023-02-18T14:26:17.310Z,97834.00
2023-02-18T14:29:10.404Z,97817.69
2023-02-18T14:31:50.517Z,97831.34
2023-02-18T14:34:17.923Z,97828.69
2023-02-18T14:36:51.329Z,97821.56
2023-02-18T14:39:36.690Z,97819.94
2023-02-18T14:42:11.498Z,97822.38
2023-02-18T14:45:01.904Z,97823.41
2023-02-18T14:47:36.002Z,97814.84
2023-02-18T14:50:04.896Z,97819.34
2023-02-18T14:52:34.715Z,97824.84
2023-02-18T14:55:03.747Z,97829.13
2023-02-18T14:57:38.155Z,97820.75
2023-02-18T15:00:07.500Z,97811.78
2023-02-18T15:02:38.990Z,97812.59
2023-02-18T15:05:13.282Z,97818.91
2023-02-18T15:07:41.756Z,97807.94
2023-02-18T15:10:16.282Z,97800.41
2023-02-18T15:12:44.080Z,97802.88
2023-02-18T15:15:14.917Z,97805.13
2023-02-18T15:17:48.298Z,97801.66
2023-02-18T15:20:16.108Z,97791.28
2023-02-18T15:22:43.673Z,97782.16
2023-02-18T15:25:15.086Z,97778.25
2023-02-18T15:27:48.064Z,97778.28
2023-02-18T15:30:23.804Z,97763.84
2023-02-18T15:32:53.136Z,97771.00
2023-02-18T15:35:23.207Z,97759.81
2023-02-18T15:37:56.218Z,97757.97
2023-02-18T15:40:33.147Z,97759.81
2023-02-18T15:43:34.354Z,97767.34
2023-02-18T15:46:07.771Z,97774.47
2023-02-18T15:48:57.145Z,97755.13
2023-02-18T15:51:37.775Z,97754.94
2023-02-18T15:54:09.139Z,97745.97
2023-02-18T15:56:41.924Z,97756.34
2023-02-18T15:59:16.122Z,97750.84
2023-02-18T16:01:45.741Z,97738.03
2023-02-18T16:04:15.761Z,97747.38
2023-02-18T16:06:53.313Z,97746.16
2023-02-18T16:09:26.788Z,97742.09
2023-02-18T16:11:59.792Z,97736.00
2023-02-18T16:14:28.902Z,97722.78
2023-02-18T16:17:11.550Z,97726.44
2023-02-18T16:20:05.975Z,97709.38
2023-02-18T16:22:47.699Z,97721.34
2023-02-18T16:25:23.887Z,97712.00
2023-02-18T16:28:10.276Z,97715.47
2023-02-18T16:33:38.397Z,97706.13
2023-02-18T16:36:08.110Z,97708.13
2023-02-18T16:41:29.401Z,97689.03
2023-02-18T16:44:13.433Z,97695.31
2023-02-18T16:46:43.369Z,97688.00
2023-02-18T16:49:24.200Z,97686.59
2023-02-18T16:52:12.776Z,97691.25
2023-02-18T16:54:48.958Z,97679.44
2023-02-18T16:57:16.804Z,97674.75
2023-02-18T16:59:43.884Z,97672.72
2023-02-18T17:02:42.415Z,97681.03
2023-02-18T17:05:26.518Z,97671.88
2023-02-18T17:08:07.315Z,97674.31
2023-02-18T17:10:37.200Z,97665.94
2023-02-18T17:13:20.233Z,97669.41
2023-02-18T17:16:04.783Z,97668.59
2023-02-18T17:18:31.879Z,97668.59
2023-02-18T17:24:35.793Z,97668.38
2023-02-18T17:27:11.628Z,97663.53
2023-02-18T17:29:38.729Z,97664.13
2023-02-18T17:32:12.267Z,97656.19
2023-02-18T17:34:54.465Z,97645.00
2023-02-18T17:37:24.326Z,97648.63
2023-02-18T17:39:56.259Z,97651.28
2023-02-18T17:42:23.616Z,97649.44
2023-02-18T17:44:57.564Z,97651.91
2023-02-18T17:47:38.422Z,97649.66
2023-02-18T17:50:23.941Z,97642.31
2023-02-18T17:53:26.993Z,97648.00
2023-02-18T17:56:18.267Z,97637.59
2023-02-18T17:58:53.238Z,97638.78
2023-02-18T18:01:23.622Z,97641.66
2023-02-18T18:03:59.769Z,97647.97
2023-02-18T18:06:29.855Z,97639.00
2023-02-18T18:09:12.120Z,97633.50
2023-02-18T18:12:06.249Z,97636.94
2023-02-18T18:17:36.590Z,97631.22
2023-02-18T18:20:05.829Z,97631.44
2023-02-18T18:22:34.015Z,97631.44
2023-02-18T18:25:22.965Z,97627.19
2023-02-18T18:28:01.435Z,97625.16
2023-02-18T18:30:37.124Z,97604.00
2023-02-18T18:33:36.848Z,97617.44
2023-02-18T18:36:07.137Z,97610.53
2023-02-18T18:38:37.289Z,97615.44
2023-02-18T18:41:16.888Z,97613.00
2023-02-18T18:43:43.849Z,97612.19
2023-02-18T18:46:13.170Z,97603.22
2023-02-18T18:49:05.266Z,97608.09
2023-02-18T18:51:40.836Z,97600.75
2023-02-18T18:54:13.992Z,97592.59
2023-02-18T18:56:44.230Z,97593.63
2023-02-18T18:59:12.110Z,97592.00
2023-02-18T19:01:47.938Z,97596.69
2023-02-18T19:04:15.495Z,97591.84
2023-02-18T19:06:55.819Z,97577.41
2023-02-18T19:15:43.099Z,97583.72
2023-02-18T19:18:24.955Z,97571.31
2023-02-18T19:20:57.744Z,97577.22
2023-02-18T19:23:37.586Z,97571.31
2023-02-18T19:31:37.144Z,97564.25
2023-02-18T19:34:07.144Z,97573.19
2023-02-18T19:39:20.678Z,97566.88
2023-02-18T19:41:48.449Z,97580.13
2023-02-18T19:44:24.889Z,97562.41
2023-02-18T19:50:47.012Z,97567.88
2023-02-18T19:52:57.869Z,97557.50
2023-02-18T19:58:20.114Z,97549.56
2023-02-18T20:00:53.709Z,97558.31
2023-02-18T20:03:25.231Z,97553.22
2023-02-18T20:09:06.173Z,97548.78
2023-02-18T20:11:36.673Z,97540.69
2023-02-18T20:14:09.970Z,97546.63
2023-02-18T20:16:39.962Z,97548.66
2023-02-18T20:19:15.832Z,97535.44
2023-02-18T20:21:53.085Z,97538.09
2023-02-18T20:24:24.262Z,97534.63
2023-02-18T20:26:55.313Z,97534.41
2023-02-18T20:32:12.220Z,97514.66
2023-02-18T20:34:43.306Z,97522.59
2023-02-18T20:37:17.180Z,97519.97
2023-02-18T20:39:44.366Z,97523.41
2023-02-18T20:44:53.415Z,97526.66
2023-02-18T20:47:28.976Z,97524.81
2023-02-18T20:49:56.489Z,97523.00
2023-02-18T20:52:32.413Z,97519.91
2023-02-18T20:55:04.194Z,97507.50
2023-02-18T20:57:31.262Z,97509.34
2023-02-18T21:00:02.216Z,97501.63
2023-02-18T21:02:30.659Z,97501.25
2023-02-18T21:05:10.802Z,97500.44
2023-02-18T21:07:37.917Z,97496.16
2023-02-18T21:10:12.148Z,97503.72
2023-02-18T21:12:43.329Z,97499.44
2023-02-18T21:15:19.264Z,97483.00
2023-02-18T21:17:49.430Z,97487.88
2023-02-18T21:20:18.074Z,97486.25
2023-02-18T21:22:45.567Z,97489.91
2023-02-18T21:28:05.651Z,97485.47
2023-02-18T21:30:42.958Z,97480.19
2023-02-18T21:33:14.102Z,97473.06
2023-02-18T21:35:46.365Z,97487.09
2023-02-18T21:38:17.112Z,97479.97
2023-02-18T21:40:44.673Z,97472.47
2023-02-18T21:43:12.712Z,97481.41
2023-02-18T21:45:42.769Z,97476.13
2023-02-18T21:48:28.345Z,97473.50
2023-02-18T21:50:59.899Z,97477.53
2023-02-18T21:53:29.208Z,97466.97
2023-02-18T21:56:03.861Z,97471.44
2023-02-18T21:58:36.111Z,97469.00
2023-02-18T22:01:05.495Z,97469.00
2023-02-18T22:03:38.872Z,97467.19
2023-02-18T22:06:10.700Z,97467.41
2023-02-18T22:08:41.821Z,97460.50
2023-02-18T22:11:12.577Z,97462.75
2023-02-18T22:13:47.930Z,97454.22
2023-02-18T22:16:18.473Z,97455.25
2023-02-18T22:18:46.915Z,97453.84
2023-02-18T22:21:19.731Z,97456.09
2023-02-18T22:23:53.049Z,97453.03
2023-02-18T22:26:23.034Z,97451.63
2023-02-18T22:28:59.128Z,97452.88
2023-02-18T22:31:30.547Z,97443.75
2023-02-18T22:34:00.783Z,97444.75
2023-02-18T22:36:39.957Z,97443.16
2023-02-18T22:39:13.391Z,97441.94
2023-02-18T22:41:43.031Z,97445.81
2023-02-18T22:44:17.580Z,97455.78
2023-02-18T22:46:48.391Z,97456.00
2023-02-18T22:49:18.493Z,97454.38
2023-02-18T22:51:55.015Z,97452.16
2023-02-18T22:54:22.325Z,97447.91
2023-02-18T22:56:59.335Z,97456.84
2023-02-18T22:59:47.036Z,97451.56
2023-02-18T23:02:25.436Z,97460.47
2023-02-18T23:04:58.585Z,97452.38
2023-02-18T23:07:29.040Z,97455.03
2023-02-18T23:09:57.522Z,97457.25
2023-02-18T23:12:27.269Z,97456.22
2023-02-18T23:14:56.590Z,97453.56
2023-02-18T23:17:23.567Z,97454.38
2023-02-18T23:19:51.697Z,97456.22
2023-02-18T23:22:22.388Z,97446.88
2023-02-18T23:24:52.894Z,97457.44
2023-02-18T23:27:24.652Z,97457.44
2023-02-18T23:29:56.623Z,97456.22
2023-02-18T23:32:23.888Z,97453.56
2023-02-18T23:34:53.068Z,97446.25
2023-02-18T23:37:41.722Z,97450.72
2023-02-18T23:40:09.940Z,97453.56
2023-02-18T23:42:36.794Z,97449.31
2023-02-18T23:45:03.783Z,97450.34
2023-02-18T23:47:30.869Z,97443.81
2023-02-18T23:49:57.955Z,97440.38
2023-02-18T23:52:24.922Z,97424.53
2023-02-18T23:54:51.797Z,97421.88
2023-02-18T23:57:18.711Z,97429.63
2023-02-18T23:59:45.689Z,97433.69
